Terminal Aerodrome Forecast
Issued by NWS Indianapolis, IN

Home | Current Version | Previous Version | Text Only | Print | Product List | Glossary On
Versions: 1 2 3 4 5 6 7 8 9 10 11 12 13 14 15 16 17 18 19 20 21 22 23 24 25 26 27 28 29
000
FTUS43 KIND 011100
TAFIND
TAF
KIND 011126Z 0112/0218 12005KT 6SM BR VCSH BKN035 OVC060
     FM011600 12011KT 4SM -RASN BR BKN020 OVC040
     FM011800 13011KT 2SM -RASN BR BKN010 OVC015
     FM012200 15006KT 1SM -RASN BR OVC004
     FM020200 34013G20KT 2SM -SN BR OVC007
     FM020600 33014G22KT 6SM -SHSN OVC020=

USA.gov is the U.S. government's official web portal to all federal, state and local government web resources and services.